Time;durP1;ratioP1;P1;durP2;ratioP2;P2;SDS_P1;SDS_P2;PMS_P1;PMS_P2;Temp;Humidity;BMP_temperature;BMP_pressure;BME280_temperature;BME280_humidity;BME280_pressure;Samples;Min_cycle;Max_cycle;Signal;HPM_P1;HPM_P2
2022/02/07 00:00:46;;;;;;;;;2.00;2.00;;;;;11.22;59.99;101537.94;5040229;28;45247;-91
2022/02/07 00:05:38;;;;;;;;;1.75;1.00;;;;;11.24;59.60;101564.22;5041652;28;45330;-91
2022/02/07 00:08:10;;;;;;;;;1.50;1.50;;;;;11.17;58.69;101568.75;5025981;28;46924;-96
2022/02/07 00:10:38;;;;;;;;;1.50;1.00;;;;;11.19;59.38;101576.59;5012428;28;45395;-95
2022/02/07 00:13:04;;;;;;;;;1.50;1.50;;;;;11.17;59.19;101588.94;5029773;28;45531;-93
2022/02/07 00:15:29;;;;;;;;;2.50;2.00;;;;;11.16;59.00;101605.63;5024576;28;47222;-91
2022/02/07 00:17:55;;;;;;;;;0.75;0.75;;;;;11.11;58.38;101621.53;5042136;28;46212;-95
2022/02/07 00:20:22;;;;;;;;;1.00;1.00;;;;;11.09;58.04;101628.56;5024988;28;46765;-94
2022/02/07 00:22:49;;;;;;;;;1.00;1.00;;;;;11.05;58.06;101622.50;5041592;28;45296;-94
2022/02/07 00:25:17;;;;;;;;;0.00;0.00;;;;;11.06;58.39;101616.38;5023168;28;46022;-96
2022/02/07 00:27:42;;;;;;;;;2.50;0.75;;;;;11.07;57.15;101627.72;5038636;28;47571;-94
2022/02/07 00:30:11;;;;;;;;;1.00;1.00;;;;;11.03;57.69;101627.81;5024976;28;45545;-95
2022/02/07 00:32:37;;;;;;;;;3.00;0.75;;;;;11.05;58.23;101634.78;5042304;28;45324;-92
2022/02/07 00:35:14;;;;;;;;;2.00;1.00;;;;;11.03;58.69;101638.34;5027311;28;46424;-94
2022/02/07 00:37:41;;;;;;;;;0.50;0.50;;;;;11.07;58.34;101644.38;5022311;28;47474;-90
2022/02/07 00:45:39;;;;;;;;;1.50;1.50;;;;;11.11;58.71;101650.47;5049176;28;46090;-91
2022/02/07 00:48:07;;;;;;;;;2.00;0.75;;;;;11.13;58.56;101653.94;5040446;28;45409;-89
2022/02/07 00:50:33;;;;;;;;;5.25;1.50;;;;;11.17;58.52;101667.88;5040851;28;45171;-88
2022/02/07 00:52:59;;;;;;;;;3.75;1.75;;;;;11.17;58.48;101673.13;5041409;28;45415;-85
2022/02/07 00:55:25;;;;;;;;;0.75;0.75;;;;;11.14;58.49;101687.22;5041197;28;45214;-86
2022/02/07 00:57:50;;;;;;;;;2.00;2.00;;;;;11.10;57.99;101685.56;5037873;28;45266;-85
2022/02/07 01:00:17;;;;;;;;;0.50;0.50;;;;;11.09;58.01;101696.97;5039543;28;45380;-85
2022/02/07 01:02:43;;;;;;;;;2.00;2.00;;;;;11.07;58.01;101706.66;5041166;28;45357;-85
2022/02/07 01:05:10;;;;;;;;;1.75;1.00;;;;;11.01;57.19;101723.44;5021867;28;46164;-86
2022/02/07 01:07:35;;;;;;;;;5.00;1.00;;;;;10.97;56.86;101735.78;5039213;28;46564;-90
2022/02/07 01:10:01;;;;;;;;;3.25;0.50;;;;;10.87;56.75;101745.59;5036957;28;45395;-91
2022/02/07 01:15:25;;;;;;;;;8.50;3.75;;;;;10.77;55.89;101739.63;5039703;28;45330;-85
2022/02/07 01:23:27;;;;;;;;;2.75;1.00;;;;;10.57;55.20;101771.50;5040796;28;45233;-89
2022/02/07 01:48:26;;;;;;;;;3.25;1.00;;;;;10.15;54.00;101862.31;5037889;28;45213;-87
2022/02/07 01:55:38;;;;;;;;;0.25;0.25;;;;;10.13;54.30;101888.63;5039161;28;45234;-82
2022/02/07 01:58:05;;;;;;;;;2.25;2.00;;;;;10.09;53.58;101883.44;5039162;28;45287;-82
2022/02/07 02:00:31;;;;;;;;;5.50;0.75;;;;;10.05;52.47;101892.25;5040088;28;45357;-82
2022/02/07 02:02:56;;;;;;;;;2.00;2.00;;;;;10.03;53.93;101894.88;5039737;28;45211;-82
2022/02/07 02:05:22;;;;;;;;;2.25;1.00;;;;;10.05;52.61;101902.75;5040016;28;45190;-82
2022/02/07 02:07:50;;;;;;;;;1.50;0.75;;;;;10.04;53.08;101914.13;5039077;28;45451;-82
2022/02/07 02:10:17;;;;;;;;;2.25;2.25;;;;;9.98;52.62;101922.94;5040064;28;46229;-82
2022/02/07 02:12:58;;;;;;;;;2.75;2.00;;;;;9.95;53.12;101921.22;5048793;28;46464;-83
2022/02/07 02:21:31;;;;;;;;;4.00;1.50;;;;;9.94;53.34;101934.38;5038469;28;45499;-83
2022/02/07 02:37:11;;;;;;;;;3.75;1.25;;;;;9.81;51.54;101967.75;5035414;28;45339;-84
2022/02/07 02:47:49;;;;;;;;;2.25;1.75;;;;;9.73;52.80;102002.84;5039585;28;45171;-84
2022/02/07 02:50:34;;;;;;;;;1.75;1.50;;;;;9.73;53.27;102002.00;5039104;28;45288;-84
2022/02/07 02:53:14;;;;;;;;;1.50;1.00;;;;;9.70;51.64;102025.66;5039249;28;45624;-85
2022/02/07 02:55:42;;;;;;;;;0.50;0.50;;;;;9.63;52.39;102041.44;5028591;28;45451;-84
2022/02/07 02:58:10;;;;;;;;;1.00;1.00;;;;;9.61;52.59;102031.81;5026173;28;45245;-84
2022/02/07 03:00:37;;;;;;;;;2.00;2.00;;;;;9.57;52.41;102026.63;5039147;28;45466;-84
2022/02/07 03:03:02;;;;;;;;;2.00;1.00;;;;;9.59;52.69;102030.97;5020125;28;47313;-83
2022/02/07 03:05:29;;;;;;;;;1.25;1.25;;;;;9.57;52.86;102037.13;5038451;28;45413;-82
2022/02/07 03:07:55;;;;;;;;;1.00;0.00;;;;;9.54;52.30;102039.75;5023254;28;45359;-83
2022/02/07 03:10:27;;;;;;;;;2.50;0.75;;;;;9.53;52.31;102029.28;5043660;28;45588;-86
2022/02/07 03:18:30;;;;;;;;;2.75;1.50;;;;;9.51;52.57;102038.91;5042734;28;45352;-88
2022/02/07 03:20:57;;;;;;;;;0.50;0.50;;;;;9.51;52.47;102038.91;5042209;28;45309;-88
2022/02/07 03:23:23;;;;;;;;;2.75;2.75;;;;;9.51;52.43;102038.91;5033972;28;47913;-84
2022/02/07 03:25:49;;;;;;;;;2.75;0.00;;;;;9.52;52.99;102057.28;5041927;28;45529;-85
2022/02/07 03:28:16;;;;;;;;;2.25;1.00;;;;;9.49;52.22;102056.41;5024159;28;45410;-85
2022/02/07 03:30:42;;;;;;;;;3.50;2.00;;;;;9.49;52.41;102072.16;5023439;28;46169;-85
2022/02/07 03:33:08;;;;;;;;;1.00;1.00;;;;;9.46;52.36;102075.69;5042209;28;46293;-85
2022/02/07 03:35:34;;;;;;;;;1.00;1.00;;;;;9.44;52.81;102072.19;5041815;28;45730;-87
2022/02/07 03:38:00;;;;;;;;;1.50;0.00;;;;;9.43;52.92;102081.81;5042165;28;45285;-87
2022/02/07 03:40:26;;;;;;;;;4.00;0.00;;;;;9.43;52.73;102087.06;5023567;28;46224;-87
2022/02/07 03:42:51;;;;;;;;;2.50;1.75;;;;;9.43;52.85;102094.09;5042053;28;46219;-87
2022/02/07 03:45:16;;;;;;;;;1.00;0.75;;;;;9.42;52.82;102101.09;5042064;28;45225;-86
2022/02/07 03:47:42;;;;;;;;;0.00;0.00;;;;;9.41;53.61;102109.84;5042224;28;45701;-86
2022/02/07 03:50:09;;;;;;;;;4.75;2.25;;;;;9.43;53.20;102129.06;5034871;28;45446;-88
2022/02/07 03:52:34;;;;;;;;;3.00;3.00;;;;;9.40;52.93;102117.72;5042123;28;46538;-88
2022/02/07 03:55:00;;;;;;;;;2.25;1.00;;;;;9.37;52.94;102126.47;5023775;28;45454;-88
2022/02/07 03:57:25;;;;;;;;;5.25;1.50;;;;;9.38;53.55;102125.63;5023742;28;45690;-85
2022/02/07 03:59:50;;;;;;;;;3.00;1.25;;;;;9.40;53.20;102139.59;5041573;28;45443;-87
2022/02/07 04:02:16;;;;;;;;;4.25;0.25;;;;;9.39;53.26;102139.59;5041939;28;45339;-90
2022/02/07 04:04:45;;;;;;;;;0.00;0.00;;;;;9.37;53.08;102146.59;5041549;28;45446;-91
2022/02/07 04:07:12;;;;;;;;;3.00;2.00;;;;;9.36;53.17;102143.09;5023630;28;46097;-90
2022/02/07 04:09:44;;;;;;;;;1.00;1.00;;;;;9.38;53.63;102156.22;5024746;28;46040;-96
2022/02/07 04:12:15;;;;;;;;;3.50;1.00;;;;;9.34;53.37;102151.00;5035459;28;47630;-93
2022/02/07 04:14:41;;;;;;;;;3.00;1.75;;;;;9.35;52.97;102162.38;5025149;28;45090;-93
2022/02/07 04:17:12;;;;;;;;;1.00;1.00;;;;;9.36;53.25;102163.25;5041282;28;45421;-93
2022/02/07 04:19:39;;;;;;;;;2.00;1.00;;;;;9.36;53.22;102171.13;5023104;28;47175;-93
2022/02/07 04:22:07;;;;;;;;;1.25;1.25;;;;;9.35;53.15;102178.09;5038636;28;46908;-87
2022/02/07 04:24:33;;;;;;;;;2.00;1.00;;;;;9.34;53.48;102194.72;5024237;28;45266;-94
2022/02/07 04:26:58;;;;;;;;;1.50;1.25;;;;;9.31;53.36;102198.22;5019774;28;45249;-91
2022/02/07 04:29:24;;;;;;;;;5.00;2.00;;;;;9.32;52.89;102194.75;5033802;28;45291;-85
2022/02/07 04:31:50;;;;;;;;;2.75;1.00;;;;;9.32;53.49;102204.34;5040583;28;45434;-85
2022/02/07 04:34:15;;;;;;;;;4.75;1.00;;;;;9.29;53.65;102194.75;5040819;28;45253;-84
2022/02/07 04:36:45;;;;;;;;;2.75;2.00;;;;;9.30;53.72;102216.63;5041357;28;45343;-88
2022/02/07 04:39:12;;;;;;;;;2.25;1.25;;;;;9.27;53.25;102220.13;5023320;28;46176;-88
2022/02/07 04:41:41;;;;;;;;;2.25;1.00;;;;;9.26;53.40;102220.13;5037533;28;45469;-88
2022/02/07 04:44:09;;;;;;;;;3.25;1.00;;;;;9.27;53.59;102230.63;5041147;28;45672;-88
2022/02/07 04:49:24;;;;;;;;;6.50;2.00;;;;;9.17;53.27;102237.63;5041126;28;45387;-92
2022/02/07 05:02:23;;;;;;;;;5.25;2.00;;;;;9.07;54.09;102241.16;5040990;28;45276;-87
2022/02/07 05:04:58;;;;;;;;;5.50;1.25;;;;;9.09;53.78;102239.41;5040434;28;45341;-86
2022/02/07 05:15:35;;;;;;;;;5.50;2.50;;;;;8.99;53.58;102260.41;5040817;28;45154;-89
2022/02/07 05:18:01;;;;;;;;;3.50;1.50;;;;;8.99;53.69;102273.50;5036909;28;45429;-86
2022/02/07 05:20:26;;;;;;;;;5.25;1.00;;;;;9.00;53.72;102282.25;5040230;28;45214;-87
2022/02/07 05:22:52;;;;;;;;;1.25;1.00;;;;;8.98;53.65;102287.53;5040718;28;46173;-89
2022/02/07 05:25:17;;;;;;;;;4.25;2.25;;;;;8.94;53.14;102292.78;5040020;28;45212;-87
2022/02/07 05:27:42;;;;;;;;;2.75;1.50;;;;;8.91;53.76;102304.16;5040572;28;45799;-86
2022/02/07 05:30:08;;;;;;;;;1.25;1.25;;;;;8.88;54.14;102296.28;5040410;28;45432;-94
2022/02/07 05:32:33;;;;;;;;;3.75;2.00;;;;;8.85;53.80;102294.53;5038263;28;45590;-92
2022/02/07 05:34:59;;;;;;;;;2.00;2.00;;;;;8.86;54.20;102312.00;5021028;28;45560;-92
2022/02/07 05:37:24;;;;;;;;;5.00;2.25;;;;;8.87;54.09;102308.50;5019850;28;45308;-95
2022/02/07 05:39:55;;;;;;;;;3.00;1.00;;;;;8.87;54.03;102305.88;5012389;28;46357;-87
2022/02/07 05:42:20;;;;;;;;;1.00;1.00;;;;;8.87;54.00;102307.63;5025046;28;46249;-92
2022/02/07 05:44:47;;;;;;;;;3.75;2.75;;;;;8.86;54.21;102316.38;5009578;28;45320;-90
2022/02/07 05:47:13;;;;;;;;;5.00;2.25;;;;;8.84;54.25;102323.38;5038438;28;45335;-89
2022/02/07 05:49:40;;;;;;;;;9.00;3.00;;;;;8.84;54.04;102334.72;5039793;28;45545;-88
2022/02/07 05:52:05;;;;;;;;;3.50;1.00;;;;;8.82;54.07;102338.22;5034752;28;45410;-87
2022/02/07 05:54:31;;;;;;;;;5.00;2.25;;;;;8.84;54.46;102344.34;5022057;28;45440;-87
2022/02/07 05:56:56;;;;;;;;;4.25;2.25;;;;;8.81;54.55;102352.22;5021707;28;45634;-86
2022/02/07 05:59:22;;;;;;;;;3.50;2.00;;;;;8.78;54.34;102353.97;5022201;28;45387;-88
2022/02/07 06:01:47;;;;;;;;;5.00;2.00;;;;;8.74;54.71;102348.72;5040049;28;46174;-87
2022/02/07 06:04:12;;;;;;;;;7.00;3.25;;;;;8.77;54.72;102357.44;5035820;28;45454;-86
2022/02/07 06:06:38;;;;;;;;;2.75;2.00;;;;;8.74;54.88;102361.81;5039664;28;45399;-86
2022/02/07 06:09:04;;;;;;;;;3.00;1.00;;;;;8.71;54.67;102370.56;5039155;28;45196;-88
2022/02/07 06:11:29;;;;;;;;;2.00;2.00;;;;;8.71;54.44;102372.31;5030376;28;47287;-91
2022/02/07 06:13:54;;;;;;;;;3.00;2.00;;;;;8.74;54.42;102381.03;5027005;28;45900;-96
2022/02/07 06:16:20;;;;;;;;;4.50;2.00;;;;;8.71;54.89;102373.19;5024094;28;45228;-95
2022/02/07 06:18:49;;;;;;;;;4.50;2.25;;;;;8.70;54.83;102379.28;5040407;28;45271;-95
2022/02/07 06:21:16;;;;;;;;;2.50;2.00;;;;;8.70;54.65;102376.66;5022722;28;48033;-93
2022/02/07 06:23:41;;;;;;;;;6.25;2.75;;;;;8.71;54.83;102385.41;5022223;28;45481;-91
2022/02/07 06:26:07;;;;;;;;;3.25;2.25;;;;;8.71;54.70;102388.91;5021959;28;45407;-94
2022/02/07 06:28:32;;;;;;;;;5.50;1.00;;;;;8.73;55.32;102399.38;5022235;28;46127;-93
2022/02/07 06:30:58;;;;;;;;;5.00;3.50;;;;;8.75;55.13;102397.63;5039319;28;46990;-96
2022/02/07 06:33:23;;;;;;;;;2.75;2.75;;;;;8.74;54.54;102402.00;5022770;28;45244;-95
2022/02/07 06:35:49;;;;;;;;;3.75;3.75;;;;;8.75;55.52;102406.38;5022279;28;45298;-92
2022/02/07 06:38:14;;;;;;;;;5.00;1.75;;;;;8.78;55.11;102416.88;5040534;28;45107;-94
2022/02/07 06:40:40;;;;;;;;;3.00;3.00;;;;;8.80;55.01;102411.63;5038732;28;46569;-90
2022/02/07 06:43:05;;;;;;;;;6.75;3.00;;;;;8.79;55.08;102417.72;5044109;28;45333;-90
2022/02/07 06:45:31;;;;;;;;;2.00;1.25;;;;;8.77;54.79;102414.25;5045617;28;45440;-91
2022/02/07 06:47:56;;;;;;;;;3.75;2.00;;;;;8.80;55.31;102426.47;5023521;28;45546;-85
2022/02/07 06:50:22;;;;;;;;;12.75;9.75;;;;;8.83;55.56;102437.88;5034478;28;46434;-85
2022/02/07 06:52:47;;;;;;;;;19.25;16.75;;;;;8.83;55.28;102436.97;5042692;28;45494;-85
2022/02/07 06:55:12;;;;;;;;;20.50;15.75;;;;;8.84;55.68;102436.13;5036362;28;45286;-85
2022/02/07 06:57:38;;;;;;;;;70.00;51.75;;;;;8.81;55.38;102443.97;5044734;28;45587;-85
2022/02/07 07:00:06;;;;;;;;;139.50;114.50;;;;;8.80;55.37;102456.22;5045673;28;45426;-85
2022/02/07 07:02:31;;;;;;;;;79.75;60.50;;;;;8.74;55.16;102454.44;5027829;28;45356;-87
2022/02/07 07:04:58;;;;;;;;;9.00;8.00;;;;;8.72;55.25;102450.06;5042791;28;45537;-87
2022/02/07 07:07:24;;;;;;;;;17.25;13.25;;;;;8.74;55.28;102462.31;5044974;28;45542;-87
2022/02/07 07:09:49;;;;;;;;;24.25;18.75;;;;;8.71;55.60;102454.44;5016323;28;48006;-87
2022/02/07 07:12:16;;;;;;;;;24.25;17.50;;;;;8.70;55.40;102457.94;5023440;28;45673;-87
2022/02/07 07:14:46;;;;;;;;;9.50;8.00;;;;;8.73;55.73;102465.81;5024316;28;45467;-87
2022/02/07 07:17:12;;;;;;;;;15.50;12.50;;;;;8.75;55.73;102476.28;5017240;28;46165;-87
2022/02/07 07:19:38;;;;;;;;;5.25;5.25;;;;;8.75;55.64;102474.56;5036257;28;45394;-87
2022/02/07 07:22:05;;;;;;;;;7.75;5.00;;;;;8.74;56.07;102479.81;5033811;28;45386;-87
2022/02/07 07:24:30;;;;;;;;;5.25;3.00;;;;;8.74;55.89;102479.81;5041625;28;45399;-87
2022/02/07 07:26:56;;;;;;;;;9.00;5.75;;;;;8.74;55.93;102491.13;5041083;28;46093;-88
2022/02/07 07:29:27;;;;;;;;;7.75;7.00;;;;;8.73;55.75;102497.28;5018459;28;47372;-87
2022/02/07 07:31:58;;;;;;;;;21.75;17.00;;;;;8.75;56.32;102513.00;5041241;28;45407;-87
2022/02/07 07:34:24;;;;;;;;;23.00;18.75;;;;;8.74;56.20;102508.66;5020348;28;45377;-87
2022/02/07 07:36:49;;;;;;;;;38.75;30.50;;;;;8.73;56.52;102518.25;5044791;28;45590;-87
2022/02/07 07:39:16;;;;;;;;;42.25;33.75;;;;;8.71;56.60;102516.50;5042543;28;46926;-87
2022/02/07 07:41:43;;;;;;;;;24.25;21.75;;;;;8.70;56.64;102519.97;5046544;28;45494;-93
2022/02/07 07:44:09;;;;;;;;;34.75;24.75;;;;;8.69;57.10;102528.72;5014114;28;45358;-87
2022/02/07 07:46:36;;;;;;;;;13.25;8.00;;;;;8.66;56.94;102534.81;5045406;28;45214;-87
2022/02/07 07:49:07;;;;;;;;;20.00;14.50;;;;;8.65;56.90;102540.94;5044429;28;45406;-87
2022/02/07 07:51:51;;;;;;;;;16.25;10.50;;;;;8.62;57.09;102554.00;5026583;28;45440;-87
2022/02/07 08:02:18;;;;;;;;;10.00;5.25;;;;;8.54;57.50;102586.28;5040230;28;45260;-87
2022/02/07 08:04:46;;;;;;;;;8.75;6.00;;;;;8.54;57.67;102585.41;5035353;28;45674;-87
2022/02/07 08:12:13;;;;;;;;;6.25;6.00;;;;;8.57;57.67;102595.03;5040684;28;45871;-87
2022/02/07 08:14:39;;;;;;;;;15.00;9.00;;;;;8.58;57.86;102602.94;5016987;28;45235;-87
2022/02/07 08:17:06;;;;;;;;;11.00;7.50;;;;;8.61;57.44;102607.31;5033694;28;45228;-86
2022/02/07 08:19:33;;;;;;;;;8.50;7.50;;;;;8.66;58.33;102621.34;5026820;28;45442;-86
2022/02/07 08:21:58;;;;;;;;;7.50;7.25;;;;;8.66;58.53;102616.09;5040266;28;46418;-86
2022/02/07 08:24:24;;;;;;;;;5.75;4.75;;;;;8.68;58.35;102623.94;5040724;28;45417;-86
2022/02/07 08:26:52;;;;;;;;;8.00;5.00;;;;;8.68;58.41;102622.22;5040612;28;45396;-86
2022/02/07 08:29:18;;;;;;;;;4.75;3.00;;;;;8.71;57.72;102627.47;5028332;28;47299;-85
2022/02/07 08:31:43;;;;;;;;;7.00;5.00;;;;;8.75;57.64;102642.34;5041196;28;45361;-85
2022/02/07 08:34:09;;;;;;;;;6.75;4.00;;;;;8.78;58.32;102650.25;5045452;28;45449;-86
2022/02/07 08:36:34;;;;;;;;;7.50;3.50;;;;;8.79;57.79;102651.09;5040474;28;45476;-86
2022/02/07 08:38:59;;;;;;;;;5.75;5.25;;;;;8.82;57.71;102655.47;5049751;28;48489;-86
2022/02/07 08:41:28;;;;;;;;;7.50;4.75;;;;;8.83;58.10;102652.00;5040884;28;45375;-86
2022/02/07 08:43:53;;;;;;;;;4.00;3.75;;;;;8.87;58.22;102659.00;5040244;28;45399;-86
2022/02/07 08:46:19;;;;;;;;;5.25;2.00;;;;;8.88;58.31;102660.78;5040030;28;45368;-85
2022/02/07 08:48:44;;;;;;;;;4.50;4.00;;;;;8.91;57.60;102671.28;5040473;28;45379;-85
2022/02/07 08:51:10;;;;;;;;;10.00;6.00;;;;;8.90;57.62;102664.28;5042403;28;45513;-86
2022/02/07 08:53:42;;;;;;;;;6.75;5.00;;;;;8.94;57.96;102670.44;5032712;28;45638;-86
2022/02/07 08:56:08;;;;;;;;;9.50;5.25;;;;;8.96;57.63;102672.16;5034866;28;45350;-86
2022/02/07 08:58:36;;;;;;;;;6.25;4.00;;;;;8.97;57.97;102676.56;5036740;28;47671;-86
2022/02/07 09:11:11;;;;;;;;;7.25;5.00;;;;;9.10;57.79;102710.72;5042969;28;46003;-81
2022/02/07 09:13:39;;;;;;;;;7.75;4.75;;;;;9.11;57.15;102718.59;5039119;28;45418;-83
2022/02/07 09:18:38;;;;;;;;;6.00;6.00;;;;;9.08;57.02;102722.97;5039534;28;45894;-82
2022/02/07 09:21:06;;;;;;;;;8.25;8.25;;;;;9.10;57.39;102740.47;5039167;28;45409;-84
2022/02/07 09:23:33;;;;;;;;;6.25;5.00;;;;;9.10;57.11;102747.44;5040445;28;45205;-85
2022/02/07 09:25:59;;;;;;;;;8.00;5.00;;;;;9.09;57.31;102751.81;5048796;28;45397;-85
2022/02/07 09:28:24;;;;;;;;;7.00;4.00;;;;;9.11;57.02;102757.94;5044161;28;45415;-81
2022/02/07 09:30:53;;;;;;;;;5.00;4.50;;;;;9.18;56.86;102769.38;5040363;28;45550;-81
2022/02/07 09:33:19;;;;;;;;;6.00;6.00;;;;;9.19;57.16;102771.09;5044697;28;45445;-85
2022/02/07 09:35:46;;;;;;;;;8.25;6.00;;;;;9.23;57.30;102783.38;5047339;28;45736;-84
2022/02/07 09:38:12;;;;;;;;;9.00;5.25;;;;;9.27;57.45;102786.03;5043477;28;46158;-83
2022/02/07 09:40:38;;;;;;;;;6.25;6.00;;;;;9.32;56.85;102794.78;5034142;28;45411;-84
2022/02/07 09:43:05;;;;;;;;;6.50;5.75;;;;;9.34;56.87;102800.94;5043220;28;45444;-86
2022/02/07 09:45:40;;;;;;;;;11.00;5.00;;;;;9.34;57.04;102806.19;5040981;28;45398;-85
2022/02/07 09:48:08;;;;;;;;;7.50;6.00;;;;;9.38;57.36;102813.22;5039268;28;45371;-85
2022/02/07 09:50:35;;;;;;;;;8.00;6.25;;;;;9.37;56.95;102819.31;5039140;28;45826;-80
2022/02/07 09:53:00;;;;;;;;;8.75;5.00;;;;;9.43;57.00;102826.38;5039960;28;45276;-82
2022/02/07 09:55:26;;;;;;;;;9.75;5.75;;;;;9.42;56.61;102822.84;5039090;28;45355;-81
2022/02/07 09:57:54;;;;;;;;;11.00;7.00;;;;;9.47;56.61;102830.75;5052919;28;45288;-81
2022/02/07 10:00:35;;;;;;;;;4.50;4.50;;;;;9.47;56.88;102830.75;5038758;28;45295;-80
2022/02/07 10:03:13;;;;;;;;;18.75;10.50;;;;;9.53;56.48;102843.91;5041473;28;45415;-81
2022/02/07 10:17:01;;;;;;;;;10.50;6.50;;;;;9.76;56.64;102865.91;4968812;28;45284;-81
2022/02/07 10:22:08;;;;;;;;;11.50;10.00;;;;;9.85;56.06;102873.81;5037362;28;45966;-81
2022/02/07 10:38:21;;;;;;;;;5.25;2.75;;;;;9.99;53.72;102875.63;5030680;28;45399;-81
2022/02/07 10:43:56;;;;;;;;;13.25;9.75;;;;;10.09;54.05;102884.44;5037988;28;45273;-80
2022/02/07 10:46:20;;;;;;;;;6.75;5.00;;;;;10.10;54.03;102883.56;5037617;28;45483;-81
2022/02/07 10:48:53;;;;;;;;;4.25;2.00;;;;;10.09;53.49;102869.56;5037967;28;45225;-81
2022/02/07 10:51:22;;;;;;;;;5.25;5.00;;;;;10.12;53.96;102871.31;5038622;28;45407;-81
2022/02/07 10:53:52;;;;;;;;;7.75;5.25;;;;;10.17;53.47;102879.22;5037809;28;45776;-80
2022/02/07 10:56:41;;;;;;;;;2.50;1.75;;;;;10.16;52.90;102869.56;5033909;28;45463;-81
2022/02/07 10:59:13;;;;;;;;;3.00;2.00;;;;;10.22;53.40;102883.59;5038364;28;45418;-81
2022/02/07 11:04:40;;;;;;;;;9.00;5.25;;;;;10.27;52.93;102873.13;5038004;28;45677;-81
2022/02/07 11:07:10;;;;;;;;;7.00;6.75;;;;;10.32;52.78;102873.13;5036008;28;45565;-81
2022/02/07 11:09:42;;;;;;;;;11.25;4.00;;;;;10.37;51.97;102873.13;5030676;28;45526;-81
2022/02/07 11:13:08;;;;;;;;;7.25;3.00;;;;;10.40;51.84;102873.13;5038003;28;45550;-81
2022/02/07 11:18:28;;;;;;;;;4.50;4.00;;;;;10.43;50.87;102886.28;4996450;28;45440;-81
2022/02/07 11:24:36;;;;;;;;;4.75;4.75;;;;;10.49;51.04;102867.03;5006880;28;46137;-81
2022/02/07 11:27:29;;;;;;;;;3.50;2.25;;;;;10.57;50.87;102876.69;5036148;28;45408;-81
2022/02/07 11:29:56;;;;;;;;;2.75;2.00;;;;;10.62;51.31;102870.59;5040003;28;45485;-82
2022/02/07 11:32:56;;;;;;;;;2.75;2.75;;;;;10.67;50.97;102868.81;5040998;28;45463;-81
2022/02/07 11:35:33;;;;;;;;;5.25;1.75;;;;;10.71;50.34;102881.13;4996069;28;45489;-81
2022/02/07 11:38:02;;;;;;;;;3.00;2.00;;;;;10.77;50.54;102889.00;5041418;28;45419;-81
2022/02/07 11:40:33;;;;;;;;;10.00;9.00;;;;;10.80;49.81;102889.00;5038809;28;45742;-81
2022/02/07 11:43:17;;;;;;;;;8.00;3.00;;;;;10.84;51.27;102895.13;5041208;28;45471;-81
2022/02/07 11:46:08;;;;;;;;;7.75;3.00;;;;;10.86;51.02;102893.41;5029694;28;45680;-81
2022/02/07 11:48:35;;;;;;;;;11.25;7.00;;;;;10.91;50.16;102894.25;5040830;28;45634;-81
2022/02/07 11:51:13;;;;;;;;;1.75;1.00;;;;;10.93;49.48;102883.75;5041612;28;45424;-81
2022/02/07 11:53:49;;;;;;;;;6.75;5.25;;;;;10.93;49.30;102881.13;5038053;28;45548;-81
2022/02/07 11:56:28;;;;;;;;;4.00;2.00;;;;;10.95;49.77;102889.00;5029438;28;45401;-81
2022/02/07 11:59:06;;;;;;;;;11.75;9.75;;;;;10.99;48.65;102886.38;5033123;28;45213;-81
2022/02/07 12:02:09;;;;;;;;;9.50;6.00;;;;;11.02;49.63;102894.25;5035419;28;45556;-81
2022/02/07 12:04:42;;;;;;;;;2.50;2.25;;;;;11.03;49.68;102895.16;5038637;28;45339;-81
2022/02/07 12:07:10;;;;;;;;;5.00;2.00;;;;;11.09;48.76;102904.78;5041115;28;45416;-81
2022/02/07 12:09:37;;;;;;;;;4.00;1.25;;;;;11.07;48.56;102893.38;5023278;28;45331;-81
2022/02/07 12:12:03;;;;;;;;;3.50;3.00;;;;;11.12;48.85;102902.16;5048648;28;45411;-81
2022/02/07 12:14:36;;;;;;;;;3.25;3.25;;;;;11.14;49.33;102892.50;5037288;28;46511;-81
2022/02/07 12:17:03;;;;;;;;;4.00;2.00;;;;;11.18;48.91;102898.66;5041062;28;45438;-81
2022/02/07 12:19:37;;;;;;;;;4.75;3.00;;;;;11.16;48.16;102889.88;5040445;28;45474;-80
2022/02/07 12:22:15;;;;;;;;;1.25;1.25;;;;;11.14;48.81;102892.50;5041130;28;45411;-80
2022/02/07 12:24:58;;;;;;;;;6.75;3.25;;;;;11.16;48.37;102887.25;5040273;28;45392;-81
2022/02/07 12:27:29;;;;;;;;;3.00;2.75;;;;;11.18;48.46;102886.38;5035863;28;45520;-80
2022/02/07 12:32:39;;;;;;;;;4.75;2.00;;;;;11.22;47.99;102879.34;5041091;28;45491;-80
2022/02/07 12:35:05;;;;;;;;;2.25;2.25;;;;;11.24;48.24;102891.63;5040178;28;45533;-81
2022/02/07 12:37:34;;;;;;;;;3.00;2.00;;;;;11.27;48.28;102892.50;5040473;28;45634;-81
2022/02/07 12:40:04;;;;;;;;;7.00;2.75;;;;;11.30;48.20;102892.50;5040186;28;45659;-81
2022/02/07 12:42:34;;;;;;;;;4.00;1.00;;;;;11.28;48.66;102897.78;5040604;28;45154;-81
2022/02/07 12:45:02;;;;;;;;;5.50;3.75;;;;;11.32;48.76;102886.34;5040335;28;45517;-81
2022/02/07 12:47:27;;;;;;;;;3.00;3.00;;;;;11.32;48.95;102888.09;5040880;28;45474;-81
2022/02/07 12:49:56;;;;;;;;;4.00;2.00;;;;;11.36;49.48;102887.19;5038522;28;45244;-80
2022/02/07 12:52:34;;;;;;;;;2.75;2.75;;;;;11.36;49.10;102882.81;5040238;28;45395;-81
2022/02/07 12:54:59;;;;;;;;;4.75;3.75;;;;;11.39;48.73;102889.84;5029013;28;45380;-81
2022/02/07 12:57:26;;;;;;;;;5.00;4.00;;;;;11.37;48.78;102888.97;5028616;28;45661;-81
2022/02/07 12:59:53;;;;;;;;;3.75;3.00;;;;;11.38;49.02;102881.97;5039700;28;45807;-80
2022/02/07 13:02:29;;;;;;;;;13.50;9.50;;;;;11.36;48.90;102882.81;5035313;28;45478;-80
2022/02/07 13:04:54;;;;;;;;;17.25;10.75;;;;;11.40;48.88;102872.28;5036961;28;45596;-80
2022/02/07 13:07:21;;;;;;;;;13.25;8.75;;;;;11.39;48.48;102867.91;5039801;28;46667;-80
2022/02/07 13:09:54;;;;;;;;;20.25;10.50;;;;;11.38;48.84;102874.06;5030017;28;47493;-81
2022/02/07 13:12:36;;;;;;;;;13.50;9.25;;;;;11.39;49.09;102881.94;5040640;28;45814;-81
2022/02/07 13:15:08;;;;;;;;;11.25;6.75;;;;;11.39;48.68;102881.94;5031895;28;45357;-81
2022/02/07 13:17:37;;;;;;;;;17.25;14.00;;;;;11.36;48.66;102884.56;5039410;28;45544;-80
2022/02/07 13:20:05;;;;;;;;;13.75;11.75;;;;;11.40;49.16;102894.25;5039108;28;45849;-80
2022/02/07 13:22:30;;;;;;;;;4.25;3.00;;;;;11.38;49.53;102884.59;5038710;28;45331;-80
2022/02/07 13:24:57;;;;;;;;;14.75;10.00;;;;;11.42;49.46;102886.31;5039610;28;45514;-80
2022/02/07 13:27:24;;;;;;;;;12.75;8.75;;;;;11.42;48.81;102887.22;5037470;28;45402;-80
2022/02/07 13:29:54;;;;;;;;;12.25;9.75;;;;;11.38;48.88;102885.47;5039819;28;45325;-80
2022/02/07 13:32:26;;;;;;;;;8.50;4.00;;;;;11.40;49.35;102882.81;5039281;28;45410;-80
2022/02/07 13:35:02;;;;;;;;;8.25;4.75;;;;;11.42;48.60;102889.84;5038504;28;45586;-81
2022/02/07 13:37:32;;;;;;;;;11.75;7.50;;;;;11.45;49.19;102891.59;5038926;28;47440;-80
2022/02/07 13:40:02;;;;;;;;;4.00;4.00;;;;;11.47;49.10;102885.44;5039745;28;45621;-81
2022/02/07 13:42:32;;;;;;;;;4.25;3.00;;;;;11.47;48.85;102895.09;5021509;28;45554;-81
2022/02/07 13:45:05;;;;;;;;;7.00;4.00;;;;;11.44;47.79;102901.25;5036228;28;45581;-81
2022/02/07 13:47:31;;;;;;;;;7.00;4.00;;;;;11.42;48.83;102908.28;5032861;28;45452;-81
2022/02/07 13:50:05;;;;;;;;;3.75;3.75;;;;;11.44;48.61;102893.34;5039388;28;45298;-81
2022/02/07 13:52:32;;;;;;;;;5.25;4.50;;;;;11.52;49.15;102892.44;5037329;28;45493;-80
2022/02/07 13:55:18;;;;;;;;;6.25;4.00;;;;;11.62;48.68;102886.28;5038022;28;45636;-81
2022/02/07 13:57:58;;;;;;;;;6.00;5.00;;;;;11.66;48.56;102885.38;5039861;28;45468;-80
2022/02/07 14:00:41;;;;;;;;;7.75;4.75;;;;;11.78;47.79;102894.13;5032895;28;45407;-81
2022/02/07 14:03:08;;;;;;;;;5.50;3.50;;;;;11.84;48.52;102890.59;5027288;28;45445;-81
2022/02/07 14:05:39;;;;;;;;;4.00;4.00;;;;;11.88;48.93;102889.69;5030200;28;45500;-81
2022/02/07 14:08:08;;;;;;;;;18.50;12.00;;;;;11.96;48.25;102897.56;5021831;28;46978;-81
2022/02/07 14:10:37;;;;;;;;;8.50;4.00;;;;;12.01;48.90;102894.06;5034595;28;45382;-80
2022/02/07 14:13:05;;;;;;;;;5.25;2.25;;;;;12.04;48.70;102891.41;5040922;28;45817;-81
2022/02/07 14:15:33;;;;;;;;;7.25;3.50;;;;;12.13;48.15;102897.53;5030028;28;45373;-81
2022/02/07 14:18:01;;;;;;;;;3.00;2.00;;;;;12.18;48.61;102884.31;5038676;28;46422;-81
2022/02/07 14:20:30;;;;;;;;;3.25;3.25;;;;;12.21;48.01;102886.97;5038373;28;45378;-81